Time;durP1;ratioP1;P1;durP2;ratioP2;P2;SDS_P1;SDS_P2;PMS_P1;PMS_P2;Temp;Humidity;BMP_temperature;BMP_pressure;BME280_temperature;BME280_humidity;BME280_pressure;Samples;Min_cycle;Max_cycle;Signal;HPM_P1;HPM_P2
2024/01/10 00:02:01;;;;;;;22.93;13.53;;;-4.80;99.90;;;;;;5089703;28;20214;-78
2024/01/10 00:04:28;;;;;;;22.40;13.77;;;-4.80;99.90;;;;;;5089026;28;20626;-74
2024/01/10 00:06:54;;;;;;;22.00;13.30;;;-4.80;99.90;;;;;;5089013;28;20266;-76
2024/01/10 00:09:21;;;;;;;24.77;14.10;;;-4.80;99.90;;;;;;5088752;28;20317;-78
2024/01/10 00:11:48;;;;;;;21.87;13.77;;;-4.80;99.90;;;;;;5089059;28;20206;-78
2024/01/10 00:14:17;;;;;;;22.37;13.30;;;-4.80;99.90;;;;;;5088708;28;20685;-75
2024/01/10 00:16:43;;;;;;;25.80;14.00;;;-4.80;99.90;;;;;;5088724;28;20250;-76
2024/01/10 00:19:10;;;;;;;24.83;14.70;;;-4.80;99.90;;;;;;5088885;28;20292;-74
2024/01/10 00:21:37;;;;;;;23.73;13.80;;;-4.80;99.90;;;;;;5088700;28;20210;-74
2024/01/10 00:24:05;;;;;;;29.33;14.93;;;-4.80;99.90;;;;;;5088360;28;20750;-74
2024/01/10 00:26:32;;;;;;;23.27;14.97;;;-4.90;99.90;;;;;;5088722;28;20231;-74
2024/01/10 00:28:59;;;;;;;24.97;13.97;;;-4.90;99.90;;;;;;5088622;28;20681;-74
2024/01/10 00:31:28;;;;;;;22.93;14.00;;;-4.90;99.90;;;;;;5088023;28;20634;-74
2024/01/10 00:33:55;;;;;;;23.37;13.80;;;-4.90;99.90;;;;;;5088167;28;20874;-74
2024/01/10 00:36:22;;;;;;;22.53;13.83;;;-4.90;99.90;;;;;;5087415;28;20289;-77
2024/01/10 00:38:49;;;;;;;24.20;14.07;;;-4.90;99.90;;;;;;5087819;28;20628;-77
2024/01/10 00:41:16;;;;;;;24.90;14.90;;;-5.00;99.90;;;;;;5088201;28;20772;-77
2024/01/10 00:43:43;;;;;;;23.87;14.53;;;-5.10;99.90;;;;;;5088216;28;20227;-79
2024/01/10 00:46:09;;;;;;;26.03;14.87;;;-5.10;99.90;;;;;;5084657;28;20253;-79
2024/01/10 00:48:38;;;;;;;23.20;13.90;;;-5.10;99.90;;;;;;5087996;28;20372;-74
2024/01/10 00:51:08;;;;;;;27.53;15.10;;;-5.10;99.90;;;;;;5088341;28;20257;-73
2024/01/10 00:53:35;;;;;;;23.17;14.13;;;-5.10;99.90;;;;;;5088121;28;20218;-78
2024/01/10 00:56:02;;;;;;;19.83;13.13;;;-5.20;99.90;;;;;;5088134;28;20572;-79
2024/01/10 00:58:28;;;;;;;23.47;14.63;;;-5.20;99.90;;;;;;5090402;28;20203;-78
2024/01/10 01:00:55;;;;;;;24.10;13.27;;;-5.20;99.90;;;;;;5087773;28;20197;-78
2024/01/10 01:03:22;;;;;;;23.70;15.23;;;-5.20;99.90;;;;;;5087925;28;20298;-78
2024/01/10 01:05:50;;;;;;;23.30;13.80;;;-5.30;99.90;;;;;;5087033;28;20313;-78
2024/01/10 01:08:17;;;;;;;23.90;14.30;;;-5.30;99.90;;;;;;5087784;28;20289;-78
2024/01/10 01:10:44;;;;;;;24.13;14.37;;;-5.30;99.90;;;;;;5088058;28;20278;-79
2024/01/10 01:13:11;;;;;;;25.53;14.87;;;-5.30;99.90;;;;;;5088166;28;20210;-76
2024/01/10 01:15:38;;;;;;;27.50;14.70;;;-5.30;99.90;;;;;;5087530;28;20211;-75
2024/01/10 01:18:05;;;;;;;25.77;15.23;;;-5.30;99.90;;;;;;5087532;28;20330;-74
2024/01/10 01:20:33;;;;;;;26.40;15.17;;;-5.30;99.90;;;;;;5087486;28;20207;-74
2024/01/10 01:23:02;;;;;;;26.90;14.80;;;-5.30;99.90;;;;;;5087662;28;20309;-74
2024/01/10 01:25:29;;;;;;;23.20;14.23;;;-5.30;99.90;;;;;;5087593;28;20266;-74
2024/01/10 01:27:55;;;;;;;25.43;14.63;;;-5.30;99.90;;;;;;5087814;28;20207;-76
2024/01/10 01:30:22;;;;;;;28.23;15.27;;;-5.30;99.90;;;;;;5087350;28;20294;-75
2024/01/10 01:32:49;;;;;;;23.50;14.23;;;-5.30;99.90;;;;;;5087792;28;20247;-74
2024/01/10 01:35:21;;;;;;;24.67;14.43;;;-5.30;99.90;;;;;;5087601;28;20234;-75
2024/01/10 01:37:48;;;;;;;28.00;16.13;;;-5.30;99.90;;;;;;5087668;28;20223;-74
2024/01/10 01:40:16;;;;;;;26.33;15.00;;;-5.40;99.90;;;;;;5087177;28;20206;-75
2024/01/10 01:42:45;;;;;;;26.67;14.77;;;-5.40;99.90;;;;;;5087317;28;20712;-77
2024/01/10 01:45:14;;;;;;;27.73;16.27;;;-5.40;99.90;;;;;;5087409;28;20231;-75
2024/01/10 01:47:42;;;;;;;26.17;15.43;;;-5.40;99.90;;;;;;5087288;28;20208;-73
2024/01/10 01:50:09;;;;;;;28.97;15.87;;;-5.40;99.90;;;;;;5087214;28;20301;-75
2024/01/10 01:52:37;;;;;;;26.10;16.10;;;-5.40;99.90;;;;;;5086810;28;20313;-75
2024/01/10 01:55:07;;;;;;;24.27;14.80;;;-5.50;99.90;;;;;;5087300;28;20300;-75
2024/01/10 01:57:36;;;;;;;27.67;15.20;;;-5.50;99.90;;;;;;5087096;28;20218;-76
2024/01/10 02:00:04;;;;;;;24.77;14.47;;;-5.50;99.90;;;;;;5066809;28;20662;-74
2024/01/10 02:02:31;;;;;;;29.53;15.30;;;-5.50;99.90;;;;;;5085525;28;20289;-74
2024/01/10 02:04:59;;;;;;;28.50;15.27;;;-5.50;99.90;;;;;;5087111;28;20677;-78
2024/01/10 02:07:26;;;;;;;25.43;14.80;;;-5.50;99.90;;;;;;5086991;28;20325;-78
2024/01/10 02:09:53;;;;;;;28.70;15.40;;;-5.60;99.90;;;;;;5086602;28;20323;-78
2024/01/10 02:12:20;;;;;;;24.70;15.57;;;-5.60;99.90;;;;;;5086553;28;20264;-78
2024/01/10 02:14:49;;;;;;;28.43;15.23;;;-5.60;99.90;;;;;;5086889;28;20217;-77
2024/01/10 02:17:16;;;;;;;26.07;14.37;;;-5.70;99.90;;;;;;5091285;28;20302;-76
2024/01/10 02:19:42;;;;;;;28.07;15.50;;;-5.60;99.90;;;;;;5093110;28;20737;-79
2024/01/10 02:22:10;;;;;;;25.07;14.93;;;-5.70;99.90;;;;;;5093559;28;20633;-78
2024/01/10 02:24:37;;;;;;;29.90;15.40;;;-5.70;99.90;;;;;;5093307;28;20736;-78
2024/01/10 02:27:06;;;;;;;25.50;15.20;;;-5.70;99.90;;;;;;5093598;28;20351;-80
2024/01/10 02:29:35;;;;;;;26.57;15.50;;;-5.70;99.90;;;;;;5093095;28;20293;-79
2024/01/10 02:32:02;;;;;;;29.80;15.63;;;-5.60;99.90;;;;;;5093793;28;20217;-80
2024/01/10 02:34:30;;;;;;;27.67;15.73;;;-5.70;99.90;;;;;;5093795;28;20286;-80
2024/01/10 02:36:57;;;;;;;23.37;14.43;;;-5.70;99.90;;;;;;5093847;28;20202;-78
2024/01/10 02:39:24;;;;;;;27.23;14.83;;;-5.90;99.90;;;;;;5093455;28;20293;-78
2024/01/10 02:41:51;;;;;;;24.33;14.50;;;-6.10;99.90;;;;;;5093574;28;20614;-80
2024/01/10 02:44:19;;;;;;;26.60;15.23;;;-6.00;99.90;;;;;;5093470;28;20678;-78
2024/01/10 02:46:46;;;;;;;24.73;15.23;;;-6.00;99.90;;;;;;5093330;28;20648;-78
2024/01/10 02:49:13;;;;;;;25.73;14.53;;;-6.00;99.90;;;;;;5093411;28;20301;-79
2024/01/10 02:51:40;;;;;;;23.53;14.13;;;-6.00;99.90;;;;;;5093205;28;20367;-79
2024/01/10 02:54:07;;;;;;;23.70;14.10;;;-5.90;99.90;;;;;;5093158;28;20203;-77
2024/01/10 02:56:34;;;;;;;21.77;13.03;;;-5.90;99.90;;;;;;5093180;28;20297;-78
2024/01/10 02:59:00;;;;;;;23.87;14.27;;;-5.90;99.90;;;;;;5093029;28;20736;-78
2024/01/10 03:01:29;;;;;;;20.83;13.33;;;-5.90;99.90;;;;;;5093055;28;20863;-77
2024/01/10 03:03:56;;;;;;;25.03;14.43;;;-5.90;99.90;;;;;;5093248;28;20240;-77
2024/01/10 03:06:22;;;;;;;25.03;14.37;;;-5.90;99.90;;;;;;5092962;28;20274;-76
2024/01/10 03:08:49;;;;;;;23.40;14.37;;;-5.90;99.90;;;;;;5092579;28;20322;-77
2024/01/10 03:11:16;;;;;;;24.00;14.20;;;-5.90;99.90;;;;;;5093052;28;20242;-77
2024/01/10 03:13:46;;;;;;;24.63;14.33;;;-5.90;99.90;;;;;;5093499;28;20285;-77
2024/01/10 03:16:13;;;;;;;24.73;14.90;;;-5.90;99.90;;;;;;5093301;28;20241;-77
2024/01/10 03:18:41;;;;;;;25.87;15.07;;;-5.90;99.90;;;;;;5093038;28;20768;-78
2024/01/10 03:21:08;;;;;;;22.97;14.57;;;-5.90;99.90;;;;;;5093182;28;20202;-78
2024/01/10 03:23:35;;;;;;;24.70;14.17;;;-5.90;99.90;;;;;;5092698;28;20213;-79
2024/01/10 03:26:02;;;;;;;22.70;14.30;;;-5.90;99.90;;;;;;5092856;28;20301;-84
2024/01/10 03:28:29;;;;;;;25.23;14.60;;;-5.90;99.90;;;;;;5083843;28;20211;-84
2024/01/10 03:30:56;;;;;;;27.80;16.00;;;-5.90;99.90;;;;;;5088475;28;20211;-83
2024/01/10 03:33:23;;;;;;;27.33;15.63;;;-5.80;99.90;;;;;;5088728;28;20302;-83
2024/01/10 03:35:51;;;;;;;28.67;15.80;;;-5.80;99.90;;;;;;5087175;28;20210;-85
2024/01/10 03:38:18;;;;;;;27.67;16.03;;;-5.80;99.90;;;;;;5085547;28;20739;-83
2024/01/10 03:40:45;;;;;;;28.90;16.23;;;-5.80;99.90;;;;;;5085482;28;20292;-85
2024/01/10 03:43:12;;;;;;;28.23;15.83;;;-5.80;99.90;;;;;;5085250;28;20300;-84
2024/01/10 03:45:39;;;;;;;30.10;16.70;;;-5.80;99.90;;;;;;5085073;28;20328;-84
2024/01/10 03:48:07;;;;;;;28.77;16.87;;;-5.80;99.90;;;;;;5076616;28;20491;-83
2024/01/10 03:50:34;;;;;;;29.53;16.47;;;-5.80;99.90;;;;;;5063446;28;20717;-84
2024/01/10 03:53:02;;;;;;;35.00;18.30;;;-5.80;99.90;;;;;;5065815;28;20627;-83
2024/01/10 03:55:29;;;;;;;29.20;16.83;;;-5.80;99.90;;;;;;5085329;28;20206;-85
2024/01/10 03:57:56;;;;;;;31.57;17.93;;;-5.80;99.90;;;;;;5082614;28;20215;-84
2024/01/10 04:00:26;;;;;;;30.00;17.47;;;-5.80;99.90;;;;;;5087762;28;20677;-82
2024/01/10 04:02:53;;;;;;;29.77;17.00;;;-5.80;99.90;;;;;;5079359;28;20680;-81
2024/01/10 04:05:20;;;;;;;28.53;16.80;;;-5.80;99.90;;;;;;5086604;28;20445;-83
2024/01/10 04:07:47;;;;;;;30.47;16.67;;;-5.80;99.90;;;;;;5087687;28;20325;-82
2024/01/10 04:10:16;;;;;;;29.33;17.00;;;-5.80;99.90;;;;;;5087783;28;20656;-81
2024/01/10 04:12:43;;;;;;;27.23;16.27;;;-5.80;99.90;;;;;;5088184;28;20571;-83
2024/01/10 04:15:10;;;;;;;28.60;16.57;;;-5.80;99.90;;;;;;5088541;28;20211;-83
2024/01/10 04:17:37;;;;;;;30.90;17.07;;;-5.80;99.90;;;;;;5088050;28;20214;-83
2024/01/10 04:20:05;;;;;;;34.27;18.10;;;-5.80;99.90;;;;;;5088189;28;20309;-83
2024/01/10 04:22:32;;;;;;;30.97;17.73;;;-5.80;99.90;;;;;;5089086;28;20296;-84
2024/01/10 04:25:00;;;;;;;28.80;16.90;;;-5.80;99.90;;;;;;5089197;28;20729;-83
2024/01/10 04:27:28;;;;;;;34.23;17.80;;;-5.80;99.90;;;;;;5089171;28;20598;-83
2024/01/10 04:29:55;;;;;;;34.10;18.23;;;-5.80;99.90;;;;;;5089286;28;20874;-83
2024/01/10 04:32:22;;;;;;;29.67;16.97;;;-5.90;99.90;;;;;;5088663;28;20211;-83
2024/01/10 04:34:49;;;;;;;30.50;17.20;;;-5.90;99.90;;;;;;5089274;28;20206;-83
2024/01/10 04:37:16;;;;;;;29.33;17.43;;;-5.90;99.90;;;;;;5088856;28;20549;-84
2024/01/10 04:39:43;;;;;;;30.70;17.43;;;-5.90;99.90;;;;;;5088135;28;20298;-82
2024/01/10 04:42:12;;;;;;;28.93;16.27;;;-5.90;99.90;;;;;;5088737;28;20665;-83
2024/01/10 04:44:42;;;;;;;28.30;16.67;;;-5.90;99.90;;;;;;5088381;28;20735;-83
2024/01/10 04:47:09;;;;;;;29.70;17.00;;;-5.90;99.90;;;;;;5088678;28;20226;-83
2024/01/10 04:49:36;;;;;;;30.67;17.37;;;-6.00;99.90;;;;;;5089108;28;20290;-84
2024/01/10 04:52:04;;;;;;;29.33;16.73;;;-6.00;99.90;;;;;;5088621;28;20700;-83
2024/01/10 04:54:30;;;;;;;27.43;16.57;;;-6.00;99.90;;;;;;5088648;28;20264;-82
2024/01/10 04:56:57;;;;;;;30.80;17.83;;;-6.00;99.90;;;;;;5088859;28;20633;-83
2024/01/10 04:59:24;;;;;;;28.93;16.57;;;-5.90;99.90;;;;;;5088392;28;20297;-82
2024/01/10 05:01:52;;;;;;;30.07;16.83;;;-5.90;99.90;;;;;;5088807;28;20230;-84
2024/01/10 05:04:19;;;;;;;28.40;16.90;;;-5.90;99.90;;;;;;5088478;28;20297;-83
2024/01/10 05:06:46;;;;;;;33.07;17.47;;;-6.00;99.90;;;;;;5088794;28;20316;-83
2024/01/10 05:09:13;;;;;;;30.57;17.50;;;-6.00;99.90;;;;;;5088378;28;20324;-81
2024/01/10 05:11:40;;;;;;;31.23;18.07;;;-6.00;99.90;;;;;;5088497;28;20211;-84
2024/01/10 05:14:07;;;;;;;33.90;17.63;;;-6.00;99.90;;;;;;5088747;28;20297;-83
2024/01/10 05:16:34;;;;;;;34.43;17.50;;;-6.00;99.90;;;;;;5088673;28;20306;-83
2024/01/10 05:19:04;;;;;;;32.80;18.57;;;-6.10;99.90;;;;;;5088475;28;20239;-84
2024/01/10 05:21:31;;;;;;;31.80;17.67;;;-6.10;99.90;;;;;;5088115;28;20632;-84
2024/01/10 05:23:58;;;;;;;33.63;18.07;;;-6.10;99.90;;;;;;5088493;28;20669;-84
2024/01/10 05:26:25;;;;;;;35.40;17.70;;;-6.10;99.90;;;;;;5088255;28;20240;-84
2024/01/10 05:28:51;;;;;;;41.50;21.60;;;-6.10;99.90;;;;;;5087918;28;20210;-83
2024/01/10 05:31:18;;;;;;;35.73;18.53;;;-6.10;99.90;;;;;;5088258;28;20305;-83
2024/01/10 05:33:45;;;;;;;33.13;18.40;;;-6.10;99.90;;;;;;5088039;28;20329;-83
2024/01/10 05:36:13;;;;;;;34.70;18.80;;;-6.10;99.90;;;;;;5087826;28;20238;-83
2024/01/10 05:38:41;;;;;;;39.53;18.33;;;-6.10;99.90;;;;;;5088326;28;20245;-83
2024/01/10 05:41:08;;;;;;;33.80;18.07;;;-6.20;99.90;;;;;;5088216;28;20301;-83
2024/01/10 05:43:35;;;;;;;34.33;18.10;;;-6.20;99.90;;;;;;5088087;28;20291;-84
2024/01/10 05:46:02;;;;;;;32.33;18.67;;;-6.30;99.90;;;;;;5088173;28;20329;-84
2024/01/10 05:48:29;;;;;;;29.17;17.30;;;-6.20;99.90;;;;;;5087731;28;20711;-83
2024/01/10 05:50:55;;;;;;;28.90;17.03;;;-6.20;99.90;;;;;;5087397;28;20290;-85
2024/01/10 05:53:25;;;;;;;31.27;17.07;;;-6.20;99.90;;;;;;5088301;28;20211;-84
2024/01/10 05:55:52;;;;;;;32.80;17.83;;;-6.20;99.90;;;;;;5087854;28;20329;-83
2024/01/10 05:58:18;;;;;;;28.10;17.20;;;-6.20;99.90;;;;;;5087422;28;20321;-84
2024/01/10 06:00:45;;;;;;;31.27;17.23;;;-6.30;99.90;;;;;;5088106;28;20238;-84
2024/01/10 06:03:12;;;;;;;27.40;16.50;;;-6.40;99.90;;;;;;5084075;28;20269;-84
2024/01/10 06:05:39;;;;;;;30.37;17.33;;;-6.30;99.90;;;;;;5087960;28;20272;-83
2024/01/10 06:08:07;;;;;;;29.63;17.67;;;-6.40;99.90;;;;;;5087580;28;20772;-84
2024/01/10 06:10:35;;;;;;;32.40;17.30;;;-6.40;99.90;;;;;;5087763;28;20298;-84
2024/01/10 06:13:03;;;;;;;29.53;17.43;;;-6.30;99.90;;;;;;5087547;28;20206;-84
2024/01/10 06:15:30;;;;;;;33.90;18.47;;;-6.30;99.90;;;;;;5087382;28;20285;-84
2024/01/10 06:17:57;;;;;;;29.77;17.23;;;-6.30;99.90;;;;;;5087872;28;20207;-84
2024/01/10 06:20:23;;;;;;;30.50;17.77;;;-6.20;99.90;;;;;;5087251;28;20823;-82
2024/01/10 06:22:50;;;;;;;32.17;17.37;;;-6.20;99.90;;;;;;5087526;28;20297;-83
2024/01/10 06:25:17;;;;;;;32.40;18.07;;;-6.20;99.90;;;;;;5087437;28;20301;-83
2024/01/10 06:27:45;;;;;;;32.57;18.33;;;-6.20;99.90;;;;;;5087145;28;20234;-84
2024/01/10 06:30:13;;;;;;;30.20;17.17;;;-6.20;99.90;;;;;;5087414;28;20615;-83
2024/01/10 06:32:40;;;;;;;32.57;17.77;;;-6.20;99.90;;;;;;5087561;28;20293;-82
2024/01/10 06:35:09;;;;;;;31.10;18.50;;;-6.30;99.90;;;;;;5087436;28;20297;-84
2024/01/10 06:37:36;;;;;;;31.40;16.27;;;-6.30;99.90;;;;;;5087353;28;20210;-84
2024/01/10 06:40:04;;;;;;;33.63;18.10;;;-6.30;99.90;;;;;;5087383;28;20293;-83
2024/01/10 06:42:31;;;;;;;28.87;16.80;;;-6.20;99.90;;;;;;5086817;28;20202;-84
2024/01/10 06:44:59;;;;;;;33.13;17.77;;;-6.10;99.90;;;;;;5087142;28;20263;-83
2024/01/10 06:47:26;;;;;;;35.23;18.57;;;-6.00;99.90;;;;;;5068031;28;20326;-83
2024/01/10 06:49:53;;;;;;;31.93;18.53;;;-5.90;99.90;;;;;;5067091;28;20207;-82
2024/01/10 06:52:20;;;;;;;30.37;18.37;;;-5.80;99.90;;;;;;5066752;28;20690;-84
2024/01/10 06:54:46;;;;;;;36.13;17.07;;;-5.70;99.90;;;;;;5074041;28;20210;-82
2024/01/10 06:57:13;;;;;;;35.73;18.50;;;-5.70;99.90;;;;;;5087100;28;20310;-82
2024/01/10 06:59:40;;;;;;;34.70;19.23;;;-5.70;99.90;;;;;;5086443;28;20215;-83
2024/01/10 07:02:08;;;;;;;32.70;19.70;;;-5.70;99.90;;;;;;5086728;28;20310;-83
2024/01/10 07:04:38;;;;;;;34.67;17.90;;;-5.70;99.90;;;;;;5089794;28;20699;-84
2024/01/10 07:07:05;;;;;;;37.03;20.20;;;-5.80;99.90;;;;;;5090660;28;20214;-84
2024/01/10 07:09:32;;;;;;;37.73;22.60;;;-5.80;99.90;;;;;;5090686;28;20239;-82
2024/01/10 07:11:59;;;;;;;40.67;21.80;;;-5.80;99.90;;;;;;5090379;28;20206;-84
2024/01/10 07:14:26;;;;;;;39.93;22.40;;;-5.90;99.90;;;;;;5089979;28;20301;-83
2024/01/10 07:16:56;;;;;;;36.97;20.60;;;-6.00;99.90;;;;;;5090061;28;20251;-83
2024/01/10 07:19:24;;;;;;;33.23;19.10;;;-6.00;99.90;;;;;;5090610;28;20199;-81
2024/01/10 07:21:54;;;;;;;35.23;19.47;;;-6.10;99.90;;;;;;5090319;28;20740;-83
2024/01/10 07:24:21;;;;;;;33.07;19.33;;;-6.10;99.90;;;;;;5090349;28;20225;-82
2024/01/10 07:26:48;;;;;;;30.77;17.67;;;-6.20;99.90;;;;;;5089949;28;20237;-83
2024/01/10 07:29:14;;;;;;;35.57;19.47;;;-6.30;99.90;;;;;;5076568;28;20362;-83
2024/01/10 07:31:41;;;;;;;33.63;17.90;;;-6.30;99.90;;;;;;5069884;28;20243;-83
2024/01/10 07:34:08;;;;;;;32.53;18.53;;;-6.30;99.90;;;;;;5069870;28;20290;-84
2024/01/10 07:36:43;;;;;;;39.17;19.27;;;-6.30;99.90;;;;;;5070055;28;20855;-83
2024/01/10 07:39:10;;;;;;;34.20;17.13;;;-6.30;99.90;;;;;;5069881;28;20203;-83
2024/01/10 07:41:36;;;;;;;28.50;17.23;;;-6.30;99.90;;;;;;5072318;28;20288;-82
2024/01/10 07:44:03;;;;;;;34.97;19.63;;;-6.30;99.90;;;;;;5089139;28;20304;-82
2024/01/10 07:46:30;;;;;;;32.33;18.10;;;-6.30;99.90;;;;;;5089380;28;20229;-83
2024/01/10 07:48:56;;;;;;;29.87;18.83;;;-6.30;99.90;;;;;;5089739;28;20689;-82
2024/01/10 07:51:23;;;;;;;33.40;20.13;;;-6.30;99.90;;;;;;5089529;28;20373;-83
2024/01/10 07:53:52;;;;;;;35.47;19.10;;;-6.20;99.90;;;;;;5089755;28;20297;-82
2024/01/10 07:56:19;;;;;;;33.77;18.60;;;-6.10;99.90;;;;;;5089329;28;20672;-83
2024/01/10 07:58:46;;;;;;;38.17;19.87;;;-6.00;99.90;;;;;;5089874;28;20217;-82
2024/01/10 08:01:13;;;;;;;35.43;18.17;;;-6.00;99.90;;;;;;5089198;28;20221;-81
2024/01/10 08:03:40;;;;;;;34.70;18.77;;;-5.90;99.90;;;;;;5089603;28;20265;-83
2024/01/10 08:06:07;;;;;;;37.80;20.07;;;-5.80;99.90;;;;;;5089772;28;20584;-82
2024/01/10 08:08:34;;;;;;;34.00;19.63;;;-5.70;99.90;;;;;;5089103;28;20907;-82
2024/01/10 08:11:02;;;;;;;34.23;19.23;;;-5.70;99.90;;;;;;5089251;28;20238;-82
2024/01/10 08:13:30;;;;;;;31.73;18.97;;;-5.60;99.90;;;;;;5089308;28;20294;-82
2024/01/10 08:15:57;;;;;;;35.23;18.77;;;-5.50;99.90;;;;;;5088642;28;20234;-82
2024/01/10 08:18:24;;;;;;;35.30;18.77;;;-5.50;99.90;;;;;;5089378;28;20647;-82
2024/01/10 08:20:51;;;;;;;42.07;19.13;;;-5.40;99.90;;;;;;5089289;28;20210;-83
2024/01/10 08:23:18;;;;;;;37.60;19.17;;;-5.30;99.90;;;;;;5089609;28;20563;-82
2024/01/10 08:25:45;;;;;;;33.00;18.37;;;-5.20;99.90;;;;;;5089497;28;20211;-83
2024/01/10 08:28:14;;;;;;;32.93;18.23;;;-5.10;99.90;;;;;;5084507;28;20326;-83
2024/01/10 08:30:40;;;;;;;35.13;18.50;;;-5.00;99.90;;;;;;5069352;28;20203;-83
2024/01/10 08:33:07;;;;;;;32.50;17.87;;;-5.00;99.90;;;;;;5069242;28;20710;-82
2024/01/10 08:35:34;;;;;;;32.83;18.20;;;-4.90;99.90;;;;;;5069379;28;20207;-83
2024/01/10 08:38:02;;;;;;;31.50;17.73;;;-4.80;99.90;;;;;;5073984;28;20291;-82
2024/01/10 08:40:29;;;;;;;32.33;18.17;;;-4.70;99.90;;;;;;5089383;28;20210;-81
2024/01/10 08:42:56;;;;;;;32.10;18.37;;;-4.50;99.90;;;;;;5088982;28;20662;-81
2024/01/10 08:45:25;;;;;;;34.83;18.57;;;-4.50;99.90;;;;;;5089177;28;20223;-81
2024/01/10 08:47:53;;;;;;;32.67;19.00;;;-4.40;99.90;;;;;;5089194;28;20234;-81
2024/01/10 08:50:19;;;;;;;34.13;18.40;;;-4.30;99.90;;;;;;5088705;28;20662;-81
2024/01/10 08:52:47;;;;;;;29.90;18.13;;;-4.20;99.90;;;;;;5089109;28;20246;-81
2024/01/10 08:55:14;;;;;;;32.00;18.07;;;-4.10;99.90;;;;;;5089376;28;20568;-81
2024/01/10 08:57:41;;;;;;;34.80;19.40;;;-4.00;99.90;;;;;;5088965;28;20296;-81
2024/01/10 09:00:11;;;;;;;31.40;18.67;;;-3.90;99.90;;;;;;5088908;28;20245;-81
2024/01/10 09:02:39;;;;;;;33.13;18.77;;;-3.80;99.90;;;;;;5089039;28;20531;-82
2024/01/10 09:05:08;;;;;;;31.20;19.10;;;-3.70;99.90;;;;;;5088913;28;20253;-81
2024/01/10 09:07:35;;;;;;;33.10;19.77;;;-3.60;99.90;;;;;;5088714;28;20206;-81
2024/01/10 09:10:02;;;;;;;34.63;19.43;;;-3.60;99.90;;;;;;5088830;28;20325;-82
2024/01/10 09:12:28;;;;;;;40.03;20.40;;;-3.50;99.90;;;;;;5088545;28;20210;-81
2024/01/10 09:14:55;;;;;;;32.10;19.27;;;-3.40;99.90;;;;;;5088497;28;20293;-81
2024/01/10 09:17:22;;;;;;;31.37;18.73;;;-3.30;99.90;;;;;;5088342;28;20727;-81
2024/01/10 09:19:50;;;;;;;31.90;17.90;;;-3.20;99.90;;;;;;5088610;28;20316;-82
2024/01/10 09:22:17;;;;;;;33.53;18.40;;;-3.20;99.90;;;;;;5089001;28;20627;-81
2024/01/10 09:24:44;;;;;;;65.37;21.13;;;-3.00;99.90;;;;;;5088640;28;20781;-81
2024/01/10 09:27:11;;;;;;;47.00;19.43;;;-2.90;99.90;;;;;;5087790;28;20237;-81
2024/01/10 09:29:38;;;;;;;32.93;19.57;;;-2.90;99.90;;;;;;5088538;28;20648;-82
2024/01/10 09:32:06;;;;;;;29.93;18.57;;;-2.70;99.90;;;;;;5088467;28;20256;-81
2024/01/10 09:34:33;;;;;;;36.87;19.57;;;-2.60;99.90;;;;;;5082360;28;20611;-81
2024/01/10 09:37:02;;;;;;;35.53;19.93;;;-2.60;99.90;;;;;;5067920;28;20689;-82
2024/01/10 09:39:28;;;;;;;34.90;19.47;;;-2.40;99.90;;;;;;5067910;28;20215;-81
2024/01/10 09:41:57;;;;;;;35.47;20.20;;;-2.40;99.90;;;;;;5067978;28;20242;-81
2024/01/10 09:44:24;;;;;;;34.57;19.57;;;-2.30;99.90;;;;;;5082030;28;20316;-83
2024/01/10 09:46:53;;;;;;;36.03;20.10;;;-2.30;99.90;;;;;;5088056;28;20234;-81
2024/01/10 09:49:21;;;;;;;36.83;19.70;;;-2.20;99.90;;;;;;5087964;28;20317;-81
2024/01/10 09:51:50;;;;;;;39.53;20.93;;;-2.10;99.90;;;;;;5088206;28;20622;-81
2024/01/10 09:54:19;;;;;;;32.67;19.60;;;-2.00;99.90;;;;;;5088087;28;20210;-81
2024/01/10 09:56:48;;;;;;;32.80;21.03;;;-1.90;99.90;;;;;;5087631;28;20249;-80
2024/01/10 09:59:14;;;;;;;33.13;21.03;;;-1.80;99.90;;;;;;5073940;28;20311;-81
2024/01/10 10:01:42;;;;;;;32.20;20.53;;;-1.70;99.90;;;;;;5067624;28;20238;-82
2024/01/10 10:04:12;;;;;;;34.27;20.47;;;-1.60;99.90;;;;;;5067432;28;20222;-81
2024/01/10 10:06:39;;;;;;;33.83;20.90;;;-1.60;99.90;;;;;;5067636;28;20211;-81
2024/01/10 10:09:09;;;;;;;39.30;22.33;;;-1.50;99.90;;;;;;5067231;28;20285;-81
2024/01/10 10:11:38;;;;;;;36.50;20.93;;;-1.40;99.90;;;;;;5067859;28;20269;-81
2024/01/10 10:14:19;;;;;;;36.77;21.73;;;-1.30;99.90;;;;;;5067079;28;20239;-83
2024/01/10 10:16:45;;;;;;;33.33;21.20;;;-1.20;99.90;;;;;;5067695;28;20330;-81
2024/01/10 10:19:13;;;;;;;36.10;22.00;;;-1.20;99.90;;;;;;5067256;28;20326;-81
2024/01/10 10:21:40;;;;;;;35.73;22.67;;;-1.00;99.90;;;;;;5067262;28;20207;-81
2024/01/10 10:24:09;;;;;;;39.67;21.67;;;-1.00;99.90;;;;;;5067421;28;20207;-81
2024/01/10 10:26:38;;;;;;;35.40;22.00;;;-1.00;99.90;;;;;;5066983;28;20715;-81
2024/01/10 10:29:05;;;;;;;35.10;22.63;;;-0.90;99.90;;;;;;5067025;28;20334;-81
2024/01/10 10:31:32;;;;;;;42.87;22.40;;;-0.80;99.90;;;;;;5078610;28;20725;-81
2024/01/10 10:34:02;;;;;;;40.40;23.67;;;-0.70;99.90;;;;;;5087352;28;20199;-81
2024/01/10 10:36:29;;;;;;;42.03;24.23;;;-0.60;99.90;;;;;;5087434;28;20372;-81
2024/01/10 10:38:55;;;;;;;39.53;23.00;;;-0.60;99.90;;;;;;5091123;28;20234;-80
2024/01/10 10:41:23;;;;;;;37.17;23.50;;;-0.50;99.90;;;;;;5070737;28;20294;-81
2024/01/10 10:43:57;;;;;;;44.00;23.93;;;-0.40;99.90;;;;;;5071060;28;20211;-81
2024/01/10 10:46:27;;;;;;;44.37;24.43;;;-0.30;99.90;;;;;;5070775;28;20551;-80
2024/01/10 10:48:58;;;;;;;43.93;24.30;;;-0.20;99.90;;;;;;5070961;28;20326;-81
2024/01/10 10:51:33;;;;;;;38.20;23.40;;;-0.10;99.90;;;;;;5070589;28;20211;-80
2024/01/10 10:54:00;;;;;;;39.07;25.00;;;0.00;99.90;;;;;;5071024;28;20280;-82
2024/01/10 10:56:31;;;;;;;40.57;24.07;;;0.10;99.90;;;;;;5070830;28;20306;-82
2024/01/10 10:59:01;;;;;;;43.93;23.33;;;0.20;99.90;;;;;;5082000;28;20298;-81
2024/01/10 11:01:28;;;;;;;37.17;22.20;;;0.30;99.90;;;;;;5091397;28;20210;-80
2024/01/10 11:03:57;;;;;;;34.27;21.70;;;0.40;99.90;;;;;;5090847;28;20207;-82
2024/01/10 11:06:24;;;;;;;30.03;20.37;;;0.40;99.90;;;;;;5090557;28;20723;-79
2024/01/10 11:08:54;;;;;;;30.20;19.77;;;0.50;99.90;;;;;;5090528;28;20362;-81
2024/01/10 11:11:35;;;;;;;33.10;19.50;;;0.50;99.90;;;;;;5090796;28;20298;-81
2024/01/10 11:14:27;;;;;;;20.70;13.70;;;0.70;99.90;;;;;;5090688;28;20279;-81
2024/01/10 11:17:19;;;;;;;18.93;12.37;;;0.90;99.90;;;;;;5090748;28;20198;-80
2024/01/10 11:20:14;;;;;;;21.17;13.70;;;1.00;99.90;;;;;;5090723;28;20226;-80
2024/01/10 11:22:57;;;;;;;29.97;19.00;;;1.00;99.90;;;;;;5091026;28;20218;-81
2024/01/10 11:25:29;;;;;;;35.70;21.37;;;1.00;99.90;;;;;;5090612;28;20187;-80
2024/01/10 11:27:56;;;;;;;37.33;23.47;;;1.10;99.90;;;;;;5087815;28;20668;-81
2024/01/10 11:30:35;;;;;;;37.73;23.67;;;1.20;99.90;;;;;;5089566;28;20732;-80
2024/01/10 11:33:03;;;;;;;40.63;23.33;;;1.20;99.90;;;;;;5090459;28;20205;-79
2024/01/10 11:35:32;;;;;;;37.07;21.17;;;1.30;99.90;;;;;;5090082;28;20210;-80
2024/01/10 11:38:00;;;;;;;30.43;18.20;;;1.40;99.90;;;;;;5090374;28;20239;-80
2024/01/10 11:40:47;;;;;;;34.03;19.80;;;1.40;99.90;;;;;;5089891;28;20285;-79
2024/01/10 11:43:15;;;;;;;32.43;21.30;;;1.50;99.90;;;;;;5089954;28;20248;-80
2024/01/10 11:45:53;;;;;;;35.57;21.27;;;1.60;99.90;;;;;;5089788;28;20602;-80
2024/01/10 11:48:28;;;;;;;29.27;17.97;;;1.70;99.90;;;;;;5089922;28;20241;-80
2024/01/10 11:50:55;;;;;;;21.30;14.93;;;1.70;99.90;;;;;;5089899;28;20194;-79
2024/01/10 11:53:42;;;;;;;26.70;15.47;;;1.70;99.80;;;;;;5090076;28;20301;-79
2024/01/10 11:56:15;;;;;;;28.93;14.77;;;1.70;99.10;;;;;;5089953;28;20309;-80
2024/01/10 11:58:55;;;;;;;28.73;14.40;;;1.80;98.90;;;;;;5089955;28;20488;-79
2024/01/10 12:01:24;;;;;;;24.43;15.00;;;1.80;98.70;;;;;;5090279;28;20644;-80
2024/01/10 12:03:53;;;;;;;28.97;16.83;;;1.90;98.90;;;;;;5089788;28;20657;-80
2024/01/10 12:06:22;;;;;;;27.53;15.37;;;1.90;98.80;;;;;;5089531;28;20975;-80
2024/01/10 12:08:49;;;;;;;31.47;16.33;;;1.90;98.40;;;;;;5089845;28;20353;-80
2024/01/10 12:11:16;;;;;;;27.83;16.50;;;1.80;98.30;;;;;;5089667;28;20293;-80
2024/01/10 12:13:43;;;;;;;28.00;15.97;;;1.80;98.10;;;;;;5089774;28;20649;-79
2024/01/10 12:16:12;;;;;;;25.70;15.87;;;1.70;98.50;;;;;;5089672;28;20209;-80
2024/01/10 12:18:40;;;;;;;23.93;14.33;;;1.80;98.50;;;;;;5089716;28;20238;-81
2024/01/10 12:21:08;;;;;;;23.27;15.20;;;1.70;98.10;;;;;;5089734;28;20289;-81
2024/01/10 12:23:35;;;;;;;26.37;14.70;;;1.70;98.20;;;;;;5089644;28;20218;-80
2024/01/10 12:26:04;;;;;;;22.93;14.00;;;1.70;98.00;;;;;;5089569;28;20245;-81
2024/01/10 12:28:31;;;;;;;22.93;13.80;;;1.70;97.90;;;;;;5089199;28;20237;-80
2024/01/10 12:30:58;;;;;;;23.00;13.93;;;1.60;97.40;;;;;;5089197;28;20326;-81
2024/01/10 12:33:28;;;;;;;24.53;14.87;;;1.70;97.50;;;;;;5089293;28;20664;-79